createdAt,value
2017-10-21T00:01:15.966Z,2.43
2017-10-21T00:03:42.555Z,2.10
2017-10-21T00:06:09.142Z,2.13
2017-10-21T00:08:35.722Z,2.03
2017-10-21T00:11:02.323Z,2.30
2017-10-21T00:13:28.898Z,2.30
2017-10-21T00:15:55.482Z,2.70
2017-10-21T00:18:22.114Z,2.17
2017-10-21T00:20:48.697Z,1.97
2017-10-21T00:23:15.288Z,2.33
2017-10-21T00:25:41.883Z,2.07
2017-10-21T00:28:08.462Z,2.30
2017-10-21T00:30:35.049Z,2.27
2017-10-21T00:33:01.643Z,2.40
2017-10-21T00:35:28.335Z,2.37
2017-10-21T00:37:54.906Z,2.57
2017-10-21T00:40:21.502Z,2.20
2017-10-21T00:42:48.082Z,2.20
2017-10-21T00:45:14.660Z,2.00
2017-10-21T00:47:41.256Z,2.03
2017-10-21T00:50:07.846Z,2.60
2017-10-21T00:52:34.418Z,2.40
2017-10-21T00:55:01.033Z,2.53
2017-10-21T00:57:27.611Z,2.70
2017-10-21T00:59:54.195Z,2.50
2017-10-21T01:02:20.814Z,2.57
2017-10-21T01:04:47.399Z,2.63
2017-10-21T01:07:13.978Z,2.50
2017-10-21T01:09:40.575Z,2.77
2017-10-21T01:12:07.156Z,2.40
2017-10-21T01:14:33.738Z,2.57
2017-10-21T01:17:00.344Z,2.97
2017-10-21T01:19:26.927Z,2.20
2017-10-21T01:21:53.507Z,2.83
2017-10-21T01:24:20.095Z,2.20
2017-10-21T01:26:46.669Z,3.13
2017-10-21T01:29:13.251Z,2.50
2017-10-21T01:31:39.847Z,2.53
2017-10-21T01:34:06.423Z,2.40
2017-10-21T01:36:33.002Z,2.10
2017-10-21T01:38:59.599Z,2.60
2017-10-21T01:41:26.174Z,2.40
2017-10-21T01:43:52.750Z,2.20
2017-10-21T01:46:19.352Z,2.40
2017-10-21T01:48:45.935Z,2.30
2017-10-21T01:51:12.516Z,2.50
2017-10-21T01:53:39.110Z,2.33
2017-10-21T01:56:05.696Z,2.33
2017-10-21T01:58:32.279Z,2.63
2017-10-21T02:00:58.878Z,2.43
2017-10-21T02:03:25.458Z,2.30
2017-10-21T02:05:52.067Z,2.30
2017-10-21T02:08:18.634Z,2.80
2017-10-21T02:10:45.211Z,2.37
2017-10-21T02:13:11.795Z,2.10
2017-10-21T02:15:38.394Z,2.37
2017-10-21T02:18:04.972Z,2.20
2017-10-21T02:20:31.554Z,2.27
2017-10-21T02:22:58.150Z,2.27
2017-10-21T02:25:24.772Z,2.53
2017-10-21T02:27:51.348Z,2.40
2017-10-21T02:30:17.943Z,2.30
2017-10-21T02:32:44.526Z,2.40
2017-10-21T02:37:53.723Z,2.00
2017-10-21T02:40:20.311Z,2.23
2017-10-21T02:42:46.910Z,2.83
2017-10-21T02:45:13.507Z,2.40
2017-10-21T02:47:40.083Z,2.00
2017-10-21T02:50:06.667Z,2.30
2017-10-21T02:52:33.278Z,2.40
2017-10-21T02:54:59.847Z,2.33
2017-10-21T02:57:26.433Z,2.60
2017-10-21T02:59:58.998Z,2.30
2017-10-21T03:02:25.594Z,2.70
2017-10-21T03:04:52.194Z,2.63
2017-10-21T03:07:18.788Z,2.30
2017-10-21T03:09:45.370Z,2.33
2017-10-21T03:12:11.954Z,2.33
2017-10-21T03:14:38.549Z,2.30
2017-10-21T03:17:05.126Z,2.20
2017-10-21T03:19:31.705Z,2.00
2017-10-21T03:21:58.309Z,2.53
2017-10-21T03:24:24.882Z,2.20
2017-10-21T03:26:51.463Z,2.20
2017-10-21T03:29:18.069Z,2.30
2017-10-21T03:31:44.647Z,2.27
2017-10-21T03:34:11.229Z,2.40
2017-10-21T03:36:37.824Z,2.20
2017-10-21T03:39:04.494Z,2.60
2017-10-21T03:41:31.086Z,2.10
2017-10-21T03:43:57.678Z,2.40
2017-10-21T03:46:24.258Z,2.13
2017-10-21T03:48:50.839Z,2.33
2017-10-21T03:51:17.440Z,2.30
2017-10-21T03:53:44.025Z,2.30
2017-10-21T03:56:10.610Z,2.40
2017-10-21T03:58:37.207Z,2.50
2017-10-21T04:01:03.790Z,2.73
2017-10-21T04:03:30.366Z,2.63
2017-10-21T04:05:57.074Z,2.37
2017-10-21T04:08:23.633Z,2.70
2017-10-21T04:10:50.217Z,2.27
2017-10-21T04:13:16.813Z,2.30
2017-10-21T04:15:43.397Z,2.70
2017-10-21T04:18:09.987Z,2.80
2017-10-21T04:20:36.590Z,2.20
2017-10-21T04:23:03.166Z,2.37
2017-10-21T04:25:29.754Z,2.20
2017-10-21T04:27:56.342Z,2.30
2017-10-21T04:30:22.926Z,2.60
2017-10-21T04:32:49.535Z,2.53
2017-10-21T04:35:16.158Z,2.10
2017-10-21T04:37:42.754Z,2.23
2017-10-21T04:40:09.334Z,2.50
2017-10-21T04:42:35.930Z,2.60
2017-10-21T04:45:02.515Z,2.43
2017-10-21T04:47:29.094Z,2.63
2017-10-21T04:49:55.682Z,2.40
2017-10-21T04:52:22.276Z,2.60
2017-10-21T04:54:48.873Z,2.60
2017-10-21T04:57:15.474Z,2.33
2017-10-21T04:59:42.054Z,3.10
2017-10-21T05:02:08.634Z,2.60
2017-10-21T05:04:35.230Z,2.40
2017-10-21T05:07:01.832Z,2.60
2017-10-21T05:09:28.452Z,2.50
2017-10-21T05:11:55.049Z,2.47
2017-10-21T05:14:21.630Z,3.10
2017-10-21T05:16:48.220Z,2.30
2017-10-21T05:19:15.598Z,2.47
2017-10-21T05:21:42.178Z,2.30
2017-10-21T05:24:08.763Z,2.77
2017-10-21T05:26:35.358Z,2.50
2017-10-21T05:29:01.958Z,2.80
2017-10-21T05:31:28.537Z,2.50
2017-10-21T05:33:55.134Z,2.90
2017-10-21T05:36:21.723Z,2.90
2017-10-21T05:38:48.303Z,2.70
2017-10-21T05:41:15.810Z,2.50
2017-10-21T05:43:42.402Z,2.73
2017-10-21T05:46:08.991Z,3.13
2017-10-21T05:48:35.589Z,2.80
2017-10-21T05:51:02.173Z,2.83
2017-10-21T05:53:28.762Z,4.47
2017-10-21T05:55:55.472Z,3.30
2017-10-21T05:58:22.051Z,3.43
2017-10-21T06:00:48.635Z,3.10
2017-10-21T06:03:15.234Z,3.00
2017-10-21T06:05:41.818Z,3.13
2017-10-21T06:08:08.398Z,3.00
2017-10-21T06:10:35.002Z,3.00
2017-10-21T06:13:01.594Z,3.30
2017-10-21T06:15:28.179Z,3.60
2017-10-21T06:17:54.770Z,3.00
2017-10-21T06:20:21.358Z,3.67
2017-10-21T06:22:47.946Z,3.37
2017-10-21T06:25:14.543Z,3.73
2017-10-21T06:27:41.127Z,2.87
2017-10-21T06:30:07.715Z,3.37
2017-10-21T06:32:34.305Z,3.23
2017-10-21T06:35:00.882Z,3.40
2017-10-21T06:37:27.466Z,3.50
2017-10-21T06:39:54.062Z,3.23
2017-10-21T06:42:20.659Z,3.73
2017-10-21T06:44:47.246Z,3.93
2017-10-21T06:47:13.848Z,3.57
2017-10-21T06:49:40.526Z,5.50
2017-10-21T06:52:07.122Z,11.00
2017-10-21T06:54:33.728Z,5.50
2017-10-21T06:57:00.350Z,5.40
2017-10-21T06:59:27.104Z,6.03
2017-10-21T07:01:53.689Z,3.80
2017-10-21T07:04:20.435Z,5.43
2017-10-21T07:06:47.014Z,18.13
2017-10-21T07:09:13.624Z,5.70
2017-10-21T07:11:40.218Z,5.30
2017-10-21T07:14:06.829Z,3.60
2017-10-21T07:16:33.410Z,3.77
2017-10-21T07:19:00.027Z,4.30
2017-10-21T07:21:26.622Z,3.90
2017-10-21T07:23:53.218Z,3.90
2017-10-21T07:26:19.799Z,4.23
2017-10-21T07:28:46.387Z,4.13
2017-10-21T07:31:12.991Z,3.90
2017-10-21T07:33:39.580Z,4.10
2017-10-21T07:36:06.173Z,3.60
2017-10-21T07:38:32.807Z,3.50
2017-10-21T07:40:59.387Z,3.27
2017-10-21T07:43:25.977Z,3.43
2017-10-21T07:45:52.569Z,3.43
2017-10-21T07:48:19.156Z,3.50
2017-10-21T07:50:45.742Z,4.00
2017-10-21T07:53:12.359Z,4.20
2017-10-21T07:55:38.951Z,5.10
2017-10-21T07:58:05.979Z,5.13
2017-10-21T08:00:32.566Z,3.93
2017-10-21T08:02:59.142Z,3.87
2017-10-21T08:05:25.734Z,4.73
2017-10-21T08:07:52.328Z,4.90
2017-10-21T08:10:18.914Z,10.63
2017-10-21T08:12:45.498Z,5.50
2017-10-21T08:15:12.110Z,7.93
2017-10-21T08:17:38.691Z,7.03
2017-10-21T08:20:05.274Z,5.47
2017-10-21T08:22:31.930Z,4.60
2017-10-21T08:24:58.558Z,4.60
2017-10-21T08:27:25.159Z,4.80
2017-10-21T08:29:51.758Z,5.10
2017-10-21T08:32:18.347Z,4.70
2017-10-21T08:34:44.936Z,6.00
2017-10-21T08:37:11.573Z,5.23
2017-10-21T08:39:38.159Z,4.80
2017-10-21T08:42:04.768Z,5.10
2017-10-21T08:44:31.436Z,5.10
2017-10-21T08:46:58.075Z,5.20
2017-10-21T08:49:24.702Z,4.73
2017-10-21T08:51:59.364Z,5.20
2017-10-21T08:54:25.938Z,5.80
2017-10-21T08:56:52.531Z,5.80
2017-10-21T08:59:19.140Z,5.60
2017-10-21T09:01:45.727Z,5.53
2017-10-21T09:04:12.312Z,5.80
2017-10-21T09:06:38.913Z,6.03
2017-10-21T09:09:05.494Z,6.40
2017-10-21T09:11:32.086Z,6.37
2017-10-21T09:13:58.709Z,10.10
2017-10-21T09:16:25.287Z,9.77
2017-10-21T09:18:51.874Z,19.10
2017-10-21T09:21:18.568Z,13.23
2017-10-21T09:23:45.146Z,10.67
2017-10-21T09:26:11.741Z,21.30
2017-10-21T09:28:38.356Z,8.10
2017-10-21T09:31:04.943Z,16.90
2017-10-21T09:33:31.529Z,15.67
2017-10-21T09:35:58.134Z,13.33
2017-10-21T09:38:24.750Z,18.03
2017-10-21T09:40:51.322Z,8.60
2017-10-21T09:43:17.934Z,16.60
2017-10-21T09:45:44.519Z,13.60
2017-10-21T09:48:11.146Z,12.03
2017-10-21T09:50:37.758Z,12.80
2017-10-21T09:53:04.347Z,8.43
2017-10-21T09:55:30.941Z,8.97
2017-10-21T09:57:57.542Z,9.20
2017-10-21T10:00:24.121Z,9.57
2017-10-21T10:02:50.711Z,8.77
2017-10-21T10:05:17.311Z,9.30
2017-10-21T10:07:43.898Z,13.17
2017-10-21T10:10:10.487Z,24.30
2017-10-21T10:12:37.115Z,56.40
2017-10-21T10:15:03.699Z,11.83
2017-10-21T10:17:30.290Z,16.07
2017-10-21T10:19:56.898Z,11.77
2017-10-21T10:22:23.487Z,6.73
2017-10-21T10:24:50.070Z,9.33
2017-10-21T10:27:16.679Z,6.20
2017-10-21T10:29:43.266Z,7.20
2017-10-21T10:32:09.849Z,7.93
2017-10-21T10:34:36.452Z,6.57
2017-10-21T10:37:03.034Z,7.30
2017-10-21T10:39:29.659Z,5.63
2017-10-21T10:41:56.274Z,12.93
2017-10-21T10:44:23.814Z,7.90
2017-10-21T10:46:50.398Z,7.23
2017-10-21T10:49:17.011Z,7.10
2017-10-21T10:51:43.594Z,7.73
2017-10-21T10:54:10.186Z,11.63
2017-10-21T10:56:36.797Z,45.40
2017-10-21T10:59:03.390Z,48.33
2017-10-21T11:01:30.003Z,12.97
2017-10-21T11:03:56.602Z,5.70
2017-10-21T11:06:23.186Z,4.60
2017-10-21T11:08:49.772Z,5.60
2017-10-21T11:11:16.367Z,4.87
2017-10-21T11:13:42.962Z,4.17
2017-10-21T11:16:09.548Z,4.93
2017-10-21T11:18:36.151Z,5.27
2017-10-21T11:21:02.730Z,4.70
2017-10-21T11:23:29.335Z,121.33
2017-10-21T11:25:55.942Z,55.07
2017-10-21T11:28:22.534Z,74.27
2017-10-21T11:30:49.134Z,264.53
2017-10-21T11:33:15.852Z,470.13
2017-10-21T11:35:42.601Z,290.00
2017-10-21T11:38:09.182Z,146.60
2017-10-21T11:40:35.791Z,84.43
2017-10-21T11:43:02.382Z,30.80
2017-10-21T11:45:28.982Z,163.13
2017-10-21T11:47:55.594Z,126.03
2017-10-21T11:50:22.188Z,61.17
2017-10-21T11:52:48.785Z,47.17
2017-10-21T11:55:15.398Z,37.20
2017-10-21T11:57:41.991Z,30.77
2017-10-21T12:00:08.582Z,24.93
2017-10-21T12:02:35.209Z,10.83
2017-10-21T12:05:01.779Z,6.83
2017-10-21T12:07:28.367Z,5.27
2017-10-21T12:09:54.962Z,6.27
2017-10-21T12:12:21.646Z,6.20
2017-10-21T12:14:48.214Z,6.90
2017-10-21T12:17:14.814Z,4.20
2017-10-21T12:19:41.398Z,8.10
2017-10-21T12:22:16.295Z,4.10
2017-10-21T12:24:42.875Z,5.87
2017-10-21T12:27:09.459Z,5.83
2017-10-21T12:29:36.067Z,7.43
2017-10-21T12:32:02.659Z,5.67
2017-10-21T12:34:29.240Z,5.23
2017-10-21T12:36:55.842Z,4.37
2017-10-21T12:39:22.426Z,4.50
2017-10-21T12:41:49.022Z,4.10
2017-10-21T12:44:15.618Z,3.67
2017-10-21T12:46:42.204Z,4.00
2017-10-21T12:49:08.782Z,4.37
2017-10-21T12:51:35.383Z,9.00
2017-10-21T12:54:01.966Z,4.00
2017-10-21T12:56:28.550Z,2.23
2017-10-21T12:58:55.161Z,2.50
2017-10-21T13:01:21.738Z,2.10
2017-10-21T13:03:48.334Z,2.60
2017-10-21T13:06:14.935Z,9.37
2017-10-21T13:08:41.522Z,10.43
2017-10-21T13:11:08.118Z,19.50
2017-10-21T13:13:34.719Z,6.80
2017-10-21T13:16:01.315Z,2.20
2017-10-21T13:18:27.894Z,3.60
2017-10-21T13:20:54.508Z,5.30
2017-10-21T13:23:21.091Z,4.13
2017-10-21T13:25:47.670Z,7.07
2017-10-21T13:28:14.259Z,1.93
2017-10-21T13:30:40.838Z,2.17
2017-10-21T13:33:07.433Z,3.50
2017-10-21T13:35:34.022Z,3.00
2017-10-21T13:38:00.625Z,6.17
2017-10-21T13:40:27.200Z,7.40
2017-10-21T13:42:53.807Z,5.43
2017-10-21T13:45:20.405Z,37.47
2017-10-21T13:47:46.986Z,4.97
2017-10-21T13:50:13.595Z,2.80
2017-10-21T13:52:40.178Z,5.27
2017-10-21T13:55:06.766Z,6.67
2017-10-21T13:57:33.367Z,20.13
2017-10-21T13:59:59.952Z,6.10
2017-10-21T14:02:26.530Z,3.27
2017-10-21T14:04:53.129Z,5.00
2017-10-21T14:07:19.714Z,2.57
2017-10-21T14:09:46.298Z,3.40
2017-10-21T14:12:12.894Z,3.07
2017-10-21T14:14:39.475Z,2.33
2017-10-21T14:17:06.062Z,3.10
2017-10-21T14:19:32.658Z,1.87
2017-10-21T14:21:59.354Z,1.93
2017-10-21T14:24:25.979Z,3.17
2017-10-21T14:26:52.587Z,2.67
2017-10-21T14:29:19.166Z,2.40
2017-10-21T14:31:45.776Z,3.40
2017-10-21T14:34:12.377Z,64.20
2017-10-21T14:36:38.974Z,68.70
2017-10-21T14:39:05.565Z,42.13
2017-10-21T14:41:32.170Z,12.47
2017-10-21T14:43:58.870Z,30.87
2017-10-21T14:46:25.469Z,16.77
2017-10-21T14:48:52.079Z,10.27
2017-10-21T14:51:18.762Z,43.93
2017-10-21T14:53:45.351Z,134.47
2017-10-21T14:56:11.989Z,8.90
2017-10-21T14:58:48.420Z,2.40
2017-10-21T15:01:15.022Z,2.90
2017-10-21T15:03:41.603Z,2.87
2017-10-21T15:06:08.189Z,2.90
2017-10-21T15:08:34.798Z,4.63
2017-10-21T15:11:01.399Z,2.67
2017-10-21T15:13:27.981Z,2.07
2017-10-21T15:15:54.579Z,1.80
2017-10-21T15:18:21.163Z,3.03
2017-10-21T15:20:47.742Z,2.00
2017-10-21T15:23:14.350Z,4.00
2017-10-21T15:25:40.931Z,1.80
2017-10-21T15:28:07.533Z,1.90
2017-10-21T15:30:34.146Z,1.90
2017-10-21T15:33:00.722Z,1.43
2017-10-21T15:35:27.353Z,1.73
2017-10-21T15:37:53.938Z,1.83
2017-10-21T15:40:20.530Z,1.97
2017-10-21T15:42:47.143Z,1.60
2017-10-21T15:45:13.855Z,1.63
2017-10-21T15:47:40.437Z,1.77
2017-10-21T15:50:07.015Z,1.60
2017-10-21T15:52:33.637Z,1.57
2017-10-21T15:55:00.219Z,1.60
2017-10-21T15:57:26.794Z,1.60
2017-10-21T15:59:53.395Z,1.60
2017-10-21T16:02:19.978Z,1.60
2017-10-21T16:04:46.555Z,1.60
2017-10-21T16:07:13.200Z,1.83
2017-10-21T16:09:39.775Z,1.40
2017-10-21T16:12:06.362Z,1.47
2017-10-21T16:14:32.967Z,1.50
2017-10-21T16:16:59.551Z,2.00
2017-10-21T16:19:26.134Z,1.70
2017-10-21T16:21:52.735Z,1.50
2017-10-21T16:24:19.310Z,1.70
2017-10-21T16:26:45.888Z,1.83
2017-10-21T16:29:12.478Z,1.80
2017-10-21T16:31:39.054Z,1.53
2017-10-21T16:34:05.637Z,1.90
2017-10-21T16:36:32.238Z,1.40
2017-10-21T16:38:58.820Z,1.93
2017-10-21T16:41:25.394Z,1.80
2017-10-21T16:43:52.002Z,1.57
2017-10-21T16:46:18.706Z,1.70
2017-10-21T16:48:45.329Z,1.50
2017-10-21T16:51:11.992Z,1.63
2017-10-21T16:53:38.596Z,1.90
2017-10-21T16:56:05.193Z,1.90
2017-10-21T16:58:31.799Z,1.90
2017-10-21T17:00:58.389Z,1.83
2017-10-21T17:03:24.966Z,1.80
2017-10-21T17:05:51.599Z,1.90
2017-10-21T17:08:18.187Z,2.10
2017-10-21T17:10:44.777Z,1.90
2017-10-21T17:13:11.370Z,1.43
2017-10-21T17:15:37.956Z,1.57
2017-10-21T17:18:04.540Z,2.10
2017-10-21T17:20:31.138Z,2.23
2017-10-21T17:22:57.726Z,1.70
2017-10-21T17:25:24.305Z,1.90
2017-10-21T17:27:50.903Z,1.87
2017-10-21T17:30:17.482Z,1.90
2017-10-21T17:32:44.063Z,2.00
2017-10-21T17:35:10.674Z,1.80
2017-10-21T17:37:37.250Z,1.67
2017-10-21T17:40:03.840Z,2.10
2017-10-21T17:42:30.508Z,2.37
2017-10-21T17:44:57.609Z,1.80
2017-10-21T17:47:24.195Z,2.03
2017-10-21T17:49:50.911Z,2.13
2017-10-21T17:52:17.503Z,2.00
2017-10-21T17:54:44.086Z,1.93
2017-10-21T17:57:10.742Z,2.40
2017-10-21T17:59:37.318Z,1.80
2017-10-21T18:02:03.899Z,1.70
2017-10-21T18:04:30.527Z,2.10
2017-10-21T18:06:57.093Z,2.23
2017-10-21T18:09:23.778Z,2.20
2017-10-21T18:11:50.355Z,2.00
2017-10-21T18:14:16.972Z,2.50
2017-10-21T18:16:43.598Z,2.00
2017-10-21T18:19:10.318Z,2.43
2017-10-21T18:21:36.939Z,2.60
2017-10-21T18:24:03.566Z,1.80
2017-10-21T18:26:30.188Z,2.07
2017-10-21T18:28:56.896Z,1.93
2017-10-21T18:31:23.529Z,2.17
2017-10-21T18:33:50.116Z,2.00
2017-10-21T18:36:16.702Z,2.00
2017-10-21T18:38:43.411Z,2.00
2017-10-21T18:41:10.000Z,2.07
2017-10-21T18:43:36.636Z,2.40
2017-10-21T18:46:03.207Z,1.93
2017-10-21T18:48:29.803Z,3.20
2017-10-21T18:50:56.395Z,2.30
2017-10-21T18:53:22.999Z,2.37
2017-10-21T18:55:49.598Z,2.23
2017-10-21T18:58:16.180Z,2.43
2017-10-21T19:00:48.611Z,2.30
2017-10-21T19:03:18.655Z,2.37
2017-10-21T19:05:45.289Z,2.30
2017-10-21T19:08:11.898Z,2.50
2017-10-21T19:10:46.638Z,2.83
2017-10-21T19:13:13.243Z,2.37
2017-10-21T19:15:39.818Z,2.60
2017-10-21T19:18:06.435Z,2.70
2017-10-21T19:20:39.483Z,2.80
2017-10-21T19:23:07.451Z,2.40
2017-10-21T19:25:37.120Z,2.40
2017-10-21T19:28:03.840Z,2.67
2017-10-21T19:30:30.419Z,3.20
2017-10-21T19:33:07.159Z,3.97
2017-10-21T19:35:33.744Z,4.10
2017-10-21T19:38:07.394Z,3.90
2017-10-21T19:40:33.971Z,3.10
2017-10-21T19:43:06.691Z,3.20
2017-10-21T19:45:33.270Z,3.93
2017-10-21T19:48:07.084Z,3.10
2017-10-21T19:50:33.725Z,3.07
2017-10-21T19:53:06.707Z,3.27
2017-10-21T19:55:33.276Z,3.10
2017-10-21T19:57:59.878Z,3.23
2017-10-21T20:00:26.487Z,3.50
2017-10-21T20:02:53.080Z,3.23
2017-10-21T20:05:19.663Z,3.33
2017-10-21T20:07:47.510Z,3.07
2017-10-21T20:10:14.094Z,2.87
2017-10-21T20:12:40.674Z,3.20
2017-10-21T20:15:07.267Z,3.43
2017-10-21T20:17:37.139Z,4.67
2017-10-21T20:20:03.716Z,3.13
2017-10-21T20:22:37.137Z,3.10
2017-10-21T20:25:03.727Z,3.30
2017-10-21T20:27:30.306Z,2.97
2017-10-21T20:29:56.905Z,3.00
2017-10-21T20:32:23.499Z,3.27
2017-10-21T20:34:50.078Z,3.20
2017-10-21T20:37:16.674Z,3.37
2017-10-21T20:39:43.267Z,2.90
2017-10-21T20:42:09.887Z,3.00
2017-10-21T20:44:36.492Z,3.00
2017-10-21T20:47:03.074Z,2.47
2017-10-21T20:49:29.657Z,3.03
2017-10-21T20:51:56.366Z,2.60
2017-10-21T20:54:22.955Z,2.63
2017-10-21T20:56:49.571Z,2.87
2017-10-21T20:59:16.256Z,2.93
2017-10-21T21:01:42.858Z,2.80
2017-10-21T21:04:09.475Z,3.03
2017-10-21T21:06:36.083Z,2.77
2017-10-21T21:09:02.666Z,2.67
2017-10-21T21:11:29.239Z,2.73
2017-10-21T21:13:55.830Z,2.40
2017-10-21T21:16:22.414Z,2.80
2017-10-21T21:18:49.002Z,3.07
2017-10-21T21:21:15.609Z,2.50
2017-10-21T21:23:42.184Z,2.53
2017-10-21T21:26:08.770Z,2.40
2017-10-21T21:28:35.376Z,3.00
2017-10-21T21:31:01.962Z,3.20
2017-10-21T21:33:28.540Z,2.90
2017-10-21T21:36:05.119Z,3.53
2017-10-21T21:38:31.702Z,2.90
2017-10-21T21:40:58.291Z,2.87
2017-10-21T21:43:24.886Z,2.53
2017-10-21T21:45:51.472Z,2.60
2017-10-21T21:48:18.671Z,2.73
2017-10-21T21:50:45.275Z,2.87
2017-10-21T21:53:11.858Z,2.67
2017-10-21T21:55:38.438Z,2.63
2017-10-21T21:58:05.044Z,2.53
2017-10-21T22:00:31.624Z,2.80
2017-10-21T22:02:58.202Z,2.20
2017-10-21T22:05:24.817Z,2.50
2017-10-21T22:07:51.403Z,2.83
2017-10-21T22:10:17.989Z,2.70
2017-10-21T22:12:44.589Z,2.37
2017-10-21T22:15:11.178Z,2.77
2017-10-21T22:17:37.768Z,2.10
2017-10-21T22:20:04.356Z,2.30
2017-10-21T22:22:30.989Z,2.80
2017-10-21T22:24:57.570Z,2.27
2017-10-21T22:27:24.163Z,2.50
2017-10-21T22:29:50.744Z,2.40
2017-10-21T22:32:17.326Z,2.67
2017-10-21T22:34:43.926Z,2.27
2017-10-21T22:37:10.509Z,2.40
2017-10-21T22:39:37.092Z,2.20
2017-10-21T22:42:03.686Z,2.07
2017-10-21T22:44:30.266Z,2.57
2017-10-21T22:46:56.847Z,2.63
2017-10-21T22:49:23.444Z,2.10
2017-10-21T22:51:50.031Z,2.27
2017-10-21T22:54:16.607Z,2.10
2017-10-21T22:56:43.205Z,1.63
2017-10-21T22:59:09.794Z,2.27
2017-10-21T23:01:36.381Z,2.17
2017-10-21T23:04:02.970Z,1.90
2017-10-21T23:06:29.552Z,2.47
2017-10-21T23:08:56.132Z,2.20
2017-10-21T23:11:22.727Z,2.10
2017-10-21T23:13:49.306Z,2.47
2017-10-21T23:16:15.888Z,1.90
2017-10-21T23:18:42.491Z,2.47
2017-10-21T23:21:09.081Z,1.90
2017-10-21T23:23:35.658Z,2.43
2017-10-21T23:26:02.250Z,2.30
2017-10-21T23:28:28.835Z,2.43
2017-10-21T23:30:55.419Z,2.43
2017-10-21T23:33:22.700Z,2.33
2017-10-21T23:35:59.625Z,2.10
2017-10-21T23:38:26.226Z,2.40
2017-10-21T23:40:52.814Z,2.30
2017-10-21T23:43:19.391Z,1.80
2017-10-21T23:45:45.990Z,2.00
2017-10-21T23:48:12.571Z,2.53
2017-10-21T23:50:39.155Z,2.23
2017-10-21T23:53:05.745Z,2.67
2017-10-21T23:55:32.334Z,2.10
2017-10-21T23:57:58.917Z,2.07
